sensor_id;sensor_type;location;lat;lon;timestamp;P1;durP1;ratioP1;P2;durP2;ratioP2
73678;SDS011;61978;52.742;16.962;2022-08-02T00:00:53;9.75;;;4.28;;
73678;SDS011;61978;52.742;16.962;2022-08-02T00:03:20;4.83;;;4.12;;
73678;SDS011;61978;52.742;16.962;2022-08-02T00:05:49;5.30;;;4.20;;
73678;SDS011;61978;52.742;16.962;2022-08-02T00:08:16;7.75;;;4.35;;
73678;SDS011;61978;52.742;16.962;2022-08-02T00:10:45;7.22;;;4.80;;
73678;SDS011;61978;52.742;16.962;2022-08-02T00:13:15;8.28;;;5.37;;
73678;SDS011;61978;52.742;16.962;2022-08-02T00:15:46;6.97;;;4.72;;
73678;SDS011;61978;52.742;16.962;2022-08-02T00:18:15;5.85;;;4.47;;
73678;SDS011;61978;52.742;16.962;2022-08-02T00:20:43;6.55;;;4.85;;
73678;SDS011;61978;52.742;16.962;2022-08-02T00:23:10;5.58;;;4.20;;
73678;SDS011;61978;52.742;16.962;2022-08-02T00:25:38;6.10;;;4.03;;
73678;SDS011;61978;52.742;16.962;2022-08-02T00:28:07;6.85;;;3.95;;
73678;SDS011;61978;52.742;16.962;2022-08-02T00:30:37;5.62;;;4.10;;
73678;SDS011;61978;52.742;16.962;2022-08-02T00:33:06;4.28;;;3.87;;
73678;SDS011;61978;52.742;16.962;2022-08-02T00:35:34;4.42;;;4.03;;
73678;SDS011;61978;52.742;16.962;2022-08-02T00:38:02;5.62;;;4.22;;
73678;SDS011;61978;52.742;16.962;2022-08-02T03:28:47;5.20;;;4.70;;
73678;SDS011;61978;52.742;16.962;2022-08-02T03:31:15;6.47;;;5.62;;
73678;SDS011;61978;52.742;16.962;2022-08-02T03:33:42;5.33;;;4.90;;
73678;SDS011;61978;52.742;16.962;2022-08-02T03:36:14;6.45;;;5.00;;
73678;SDS011;61978;52.742;16.962;2022-08-02T03:38:45;6.35;;;5.75;;
73678;SDS011;61978;52.742;16.962;2022-08-02T03:41:15;9.18;;;5.17;;
73678;SDS011;61978;52.742;16.962;2022-08-02T03:43:48;10.45;;;5.22;;
73678;SDS011;61978;52.742;16.962;2022-08-02T03:46:19;5.28;;;4.55;;
73678;SDS011;61978;52.742;16.962;2022-08-02T03:48:49;5.95;;;4.28;;
73678;SDS011;61978;52.742;16.962;2022-08-02T03:51:21;5.97;;;4.33;;
73678;SDS011;61978;52.742;16.962;2022-08-02T03:53:49;24.45;;;6.20;;
73678;SDS011;61978;52.742;16.962;2022-08-02T03:56:18;16.57;;;6.60;;
73678;SDS011;61978;52.742;16.962;2022-08-02T03:58:46;8.00;;;4.72;;
73678;SDS011;61978;52.742;16.962;2022-08-02T04:01:14;5.22;;;4.72;;
73678;SDS011;61978;52.742;16.962;2022-08-02T04:03:46;4.80;;;3.87;;
73678;SDS011;61978;52.742;16.962;2022-08-02T04:06:14;8.60;;;4.53;;
73678;SDS011;61978;52.742;16.962;2022-08-02T04:08:43;9.10;;;4.17;;
73678;SDS011;61978;52.742;16.962;2022-08-02T04:11:11;5.62;;;3.95;;
73678;SDS011;61978;52.742;16.962;2022-08-02T04:14:01;22.67;;;4.60;;
73678;SDS011;61978;52.742;16.962;2022-08-02T04:19:09;6.20;;;4.37;;
73678;SDS011;61978;52.742;16.962;2022-08-02T04:22:01;6.92;;;4.40;;
73678;SDS011;61978;52.742;16.962;2022-08-02T04:24:38;8.60;;;4.55;;
73678;SDS011;61978;52.742;16.962;2022-08-02T04:27:09;5.22;;;3.85;;
73678;SDS011;61978;52.742;16.962;2022-08-02T04:29:38;7.60;;;4.60;;
73678;SDS011;61978;52.742;16.962;2022-08-02T04:32:08;9.18;;;5.35;;
73678;SDS011;61978;52.742;16.962;2022-08-02T04:34:36;5.25;;;4.75;;
73678;SDS011;61978;52.742;16.962;2022-08-02T04:37:04;9.73;;;4.28;;
73678;SDS011;61978;52.742;16.962;2022-08-02T04:39:35;9.75;;;5.37;;
73678;SDS011;61978;52.742;16.962;2022-08-02T04:42:03;5.00;;;4.00;;
73678;SDS011;61978;52.742;16.962;2022-08-02T04:44:31;7.97;;;5.00;;
73678;SDS011;61978;52.742;16.962;2022-08-02T04:47:00;5.78;;;3.95;;
73678;SDS011;61978;52.742;16.962;2022-08-02T04:49:30;10.50;;;4.47;;
73678;SDS011;61978;52.742;16.962;2022-08-02T04:51:57;6.47;;;4.50;;
73678;SDS011;61978;52.742;16.962;2022-08-02T04:54:25;6.53;;;4.28;;
73678;SDS011;61978;52.742;16.962;2022-08-02T04:56:52;6.45;;;5.03;;
73678;SDS011;61978;52.742;16.962;2022-08-02T04:59:19;8.30;;;4.22;;
73678;SDS011;61978;52.742;16.962;2022-08-02T05:01:47;8.05;;;4.72;;
73678;SDS011;61978;52.742;16.962;2022-08-02T05:04:14;14.10;;;4.62;;
73678;SDS011;61978;52.742;16.962;2022-08-02T05:06:43;9.58;;;4.40;;
73678;SDS011;61978;52.742;16.962;2022-08-02T05:09:09;7.78;;;4.67;;
73678;SDS011;61978;52.742;16.962;2022-08-02T05:11:38;8.90;;;5.12;;
73678;SDS011;61978;52.742;16.962;2022-08-02T05:14:05;7.17;;;4.15;;
73678;SDS011;61978;52.742;16.962;2022-08-02T05:16:32;6.30;;;3.92;;
73678;SDS011;61978;52.742;16.962;2022-08-02T05:19:00;5.37;;;3.27;;
73678;SDS011;61978;52.742;16.962;2022-08-02T05:21:28;8.70;;;4.97;;
73678;SDS011;61978;52.742;16.962;2022-08-02T05:23:56;8.25;;;4.22;;
73678;SDS011;61978;52.742;16.962;2022-08-02T05:26:23;8.55;;;3.30;;
73678;SDS011;61978;52.742;16.962;2022-08-02T05:28:51;6.60;;;3.62;;
73678;SDS011;61978;52.742;16.962;2022-08-02T05:31:20;9.55;;;3.22;;
73678;SDS011;61978;52.742;16.962;2022-08-02T05:33:47;8.95;;;3.10;;
73678;SDS011;61978;52.742;16.962;2022-08-02T05:36:14;8.88;;;2.40;;
73678;SDS011;61978;52.742;16.962;2022-08-02T05:38:44;9.23;;;2.70;;
73678;SDS011;61978;52.742;16.962;2022-08-02T05:41:11;5.55;;;2.87;;
73678;SDS011;61978;52.742;16.962;2022-08-02T05:43:38;11.57;;;2.62;;
73678;SDS011;61978;52.742;16.962;2022-08-02T05:46:06;6.30;;;2.58;;
73678;SDS011;61978;52.742;16.962;2022-08-02T05:48:34;8.28;;;2.92;;
73678;SDS011;61978;52.742;16.962;2022-08-02T05:51:03;9.20;;;2.75;;
73678;SDS011;61978;52.742;16.962;2022-08-02T05:56:16;7.67;;;2.17;;
73678;SDS011;61978;52.742;16.962;2022-08-02T05:59:03;8.13;;;2.42;;
73678;SDS011;61978;52.742;16.962;2022-08-02T06:01:32;10.08;;;2.02;;
73678;SDS011;61978;52.742;16.962;2022-08-02T06:04:05;7.78;;;1.92;;
73678;SDS011;61978;52.742;16.962;2022-08-02T06:06:34;7.40;;;2.30;;
73678;SDS011;61978;52.742;16.962;2022-08-02T06:09:24;6.03;;;1.80;;
73678;SDS011;61978;52.742;16.962;2022-08-02T06:11:45;10.45;;;2.83;;
73678;SDS011;61978;52.742;16.962;2022-08-02T06:14:14;7.85;;;2.20;;
73678;SDS011;61978;52.742;16.962;2022-08-02T06:16:45;8.20;;;1.82;;
73678;SDS011;61978;52.742;16.962;2022-08-02T06:19:13;7.62;;;2.05;;
73678;SDS011;61978;52.742;16.962;2022-08-02T06:21:42;7.78;;;1.90;;
73678;SDS011;61978;52.742;16.962;2022-08-02T06:24:11;6.22;;;1.60;;
73678;SDS011;61978;52.742;16.962;2022-08-02T06:26:38;20.43;;;1.92;;
73678;SDS011;61978;52.742;16.962;2022-08-02T06:29:08;4.83;;;1.85;;
73678;SDS011;61978;52.742;16.962;2022-08-02T06:31:37;13.83;;;2.60;;
73678;SDS011;61978;52.742;16.962;2022-08-02T06:34:07;6.83;;;1.75;;
73678;SDS011;61978;52.742;16.962;2022-08-02T06:36:38;5.25;;;1.87;;
73678;SDS011;61978;52.742;16.962;2022-08-02T06:41:41;9.85;;;2.50;;
73678;SDS011;61978;52.742;16.962;2022-08-02T06:44:15;9.38;;;2.05;;
73678;SDS011;61978;52.742;16.962;2022-08-02T06:46:43;8.88;;;2.33;;
73678;SDS011;61978;52.742;16.962;2022-08-02T06:49:09;4.35;;;1.25;;
73678;SDS011;61978;52.742;16.962;2022-08-02T06:51:35;10.15;;;2.10;;
73678;SDS011;61978;52.742;16.962;2022-08-02T06:54:02;6.62;;;1.87;;
73678;SDS011;61978;52.742;16.962;2022-08-02T06:56:30;9.85;;;1.70;;
73678;SDS011;61978;52.742;16.962;2022-08-02T06:58:56;9.05;;;2.33;;
73678;SDS011;61978;52.742;16.962;2022-08-02T07:01:23;5.72;;;1.45;;
73678;SDS011;61978;52.742;16.962;2022-08-02T07:03:50;7.78;;;1.80;;
73678;SDS011;61978;52.742;16.962;2022-08-02T07:06:16;11.57;;;1.47;;
73678;SDS011;61978;52.742;16.962;2022-08-02T07:08:43;6.95;;;1.67;;
73678;SDS011;61978;52.742;16.962;2022-08-02T07:11:10;4.22;;;1.30;;
73678;SDS011;61978;52.742;16.962;2022-08-02T07:13:37;6.25;;;1.27;;
73678;SDS011;61978;52.742;16.962;2022-08-02T07:16:04;6.65;;;1.70;;
73678;SDS011;61978;52.742;16.962;2022-08-02T07:18:31;8.48;;;1.60;;
73678;SDS011;61978;52.742;16.962;2022-08-02T07:20:59;5.47;;;1.82;;
73678;SDS011;61978;52.742;16.962;2022-08-02T07:23:25;7.53;;;1.60;;
73678;SDS011;61978;52.742;16.962;2022-08-02T07:25:52;7.90;;;1.65;;
73678;SDS011;61978;52.742;16.962;2022-08-02T07:28:19;5.75;;;1.60;;
73678;SDS011;61978;52.742;16.962;2022-08-02T07:30:45;4.12;;;0.80;;
73678;SDS011;61978;52.742;16.962;2022-08-02T07:33:12;6.67;;;1.60;;
73678;SDS011;61978;52.742;16.962;2022-08-02T07:35:40;1.57;;;0.88;;
73678;SDS011;61978;52.742;16.962;2022-08-02T07:38:06;3.58;;;1.20;;
73678;SDS011;61978;52.742;16.962;2022-08-02T07:40:33;1.98;;;0.78;;
73678;SDS011;61978;52.742;16.962;2022-08-02T07:43:00;6.28;;;1.10;;
73678;SDS011;61978;52.742;16.962;2022-08-02T07:45:29;3.55;;;0.98;;
73678;SDS011;61978;52.742;16.962;2022-08-02T07:47:57;3.10;;;1.30;;
73678;SDS011;61978;52.742;16.962;2022-08-02T07:50:24;3.75;;;1.47;;
73678;SDS011;61978;52.742;16.962;2022-08-02T07:52:52;5.45;;;1.05;;
73678;SDS011;61978;52.742;16.962;2022-08-02T07:55:19;3.87;;;0.90;;
73678;SDS011;61978;52.742;16.962;2022-08-02T07:57:46;4.35;;;1.30;;
73678;SDS011;61978;52.742;16.962;2022-08-02T08:00:14;4.10;;;0.95;;
73678;SDS011;61978;52.742;16.962;2022-08-02T08:02:41;9.03;;;1.35;;
73678;SDS011;61978;52.742;16.962;2022-08-02T08:05:09;4.55;;;1.25;;
73678;SDS011;61978;52.742;16.962;2022-08-02T08:07:37;2.30;;;0.75;;
73678;SDS011;61978;52.742;16.962;2022-08-02T08:10:04;4.90;;;1.35;;
73678;SDS011;61978;52.742;16.962;2022-08-02T08:12:33;5.80;;;1.17;;
73678;SDS011;61978;52.742;16.962;2022-08-02T08:15:01;2.87;;;0.80;;
73678;SDS011;61978;52.742;16.962;2022-08-02T08:17:28;60.03;;;4.20;;
73678;SDS011;61978;52.742;16.962;2022-08-02T08:19:55;3.37;;;1.07;;
73678;SDS011;61978;52.742;16.962;2022-08-02T08:22:23;6.67;;;1.00;;
73678;SDS011;61978;52.742;16.962;2022-08-02T08:24:51;7.70;;;1.17;;
73678;SDS011;61978;52.742;16.962;2022-08-02T08:27:18;3.08;;;1.20;;
73678;SDS011;61978;52.742;16.962;2022-08-02T08:29:47;4.47;;;0.85;;
73678;SDS011;61978;52.742;16.962;2022-08-02T08:32:14;7.67;;;1.05;;
73678;SDS011;61978;52.742;16.962;2022-08-02T08:34:42;4.78;;;1.10;;
73678;SDS011;61978;52.742;16.962;2022-08-02T08:37:09;8.20;;;1.20;;
73678;SDS011;61978;52.742;16.962;2022-08-02T08:39:36;4.10;;;0.75;;
73678;SDS011;61978;52.742;16.962;2022-08-02T08:42:10;8.03;;;1.17;;
73678;SDS011;61978;52.742;16.962;2022-08-02T08:44:35;5.13;;;1.40;;
73678;SDS011;61978;52.742;16.962;2022-08-02T08:47:03;13.50;;;1.20;;
73678;SDS011;61978;52.742;16.962;2022-08-02T08:49:33;7.67;;;1.15;;
73678;SDS011;61978;52.742;16.962;2022-08-02T08:52:05;5.87;;;1.05;;
73678;SDS011;61978;52.742;16.962;2022-08-02T08:54:32;3.15;;;1.22;;
73678;SDS011;61978;52.742;16.962;2022-08-02T08:57:03;11.65;;;1.47;;
73678;SDS011;61978;52.742;16.962;2022-08-02T08:59:30;4.92;;;1.00;;
73678;SDS011;61978;52.742;16.962;2022-08-02T09:01:58;3.10;;;0.82;;
73678;SDS011;61978;52.742;16.962;2022-08-02T09:04:26;6.35;;;0.93;;
73678;SDS011;61978;52.742;16.962;2022-08-02T09:06:52;3.65;;;1.35;;
73678;SDS011;61978;52.742;16.962;2022-08-02T09:09:20;3.10;;;0.82;;
73678;SDS011;61978;52.742;16.962;2022-08-02T09:11:46;3.00;;;0.95;;
73678;SDS011;61978;52.742;16.962;2022-08-02T09:14:13;3.62;;;1.30;;
73678;SDS011;61978;52.742;16.962;2022-08-02T09:16:42;23.00;;;2.00;;
73678;SDS011;61978;52.742;16.962;2022-08-02T09:19:24;5.15;;;0.90;;
73678;SDS011;61978;52.742;16.962;2022-08-02T09:22:02;7.75;;;1.20;;
73678;SDS011;61978;52.742;16.962;2022-08-02T09:24:29;4.70;;;1.20;;
73678;SDS011;61978;52.742;16.962;2022-08-02T09:27:00;5.55;;;0.93;;
73678;SDS011;61978;52.742;16.962;2022-08-02T09:29:30;1.62;;;0.72;;
73678;SDS011;61978;52.742;16.962;2022-08-02T09:32:01;5.35;;;1.30;;
73678;SDS011;61978;52.742;16.962;2022-08-02T09:34:49;4.67;;;1.72;;
73678;SDS011;61978;52.742;16.962;2022-08-02T09:37:22;8.28;;;1.62;;
73678;SDS011;61978;52.742;16.962;2022-08-02T09:39:55;3.10;;;0.88;;
73678;SDS011;61978;52.742;16.962;2022-08-02T09:42:25;4.65;;;1.20;;
73678;SDS011;61978;52.742;16.962;2022-08-02T09:47:26;4.10;;;1.00;;
73678;SDS011;61978;52.742;16.962;2022-08-02T09:49:54;5.90;;;0.82;;
73678;SDS011;61978;52.742;16.962;2022-08-02T09:52:26;2.87;;;0.90;;
73678;SDS011;61978;52.742;16.962;2022-08-02T09:55:05;1.30;;;0.60;;
73678;SDS011;61978;52.742;16.962;2022-08-02T09:57:35;3.50;;;1.10;;
73678;SDS011;61978;52.742;16.962;2022-08-02T10:00:05;3.70;;;0.90;;
73678;SDS011;61978;52.742;16.962;2022-08-02T10:02:36;3.35;;;0.85;;
73678;SDS011;61978;52.742;16.962;2022-08-02T10:05:03;4.47;;;0.72;;
73678;SDS011;61978;52.742;16.962;2022-08-02T10:07:30;3.62;;;1.10;;
73678;SDS011;61978;52.742;16.962;2022-08-02T10:09:59;5.35;;;1.00;;
73678;SDS011;61978;52.742;16.962;2022-08-02T10:12:27;4.20;;;0.95;;
73678;SDS011;61978;52.742;16.962;2022-08-02T10:14:55;3.90;;;0.90;;
73678;SDS011;61978;52.742;16.962;2022-08-02T10:17:23;4.47;;;1.20;;
73678;SDS011;61978;52.742;16.962;2022-08-02T10:19:51;4.22;;;0.98;;
73678;SDS011;61978;52.742;16.962;2022-08-02T10:22:17;1.92;;;0.98;;
73678;SDS011;61978;52.742;16.962;2022-08-02T10:24:45;1.77;;;0.80;;
73678;SDS011;61978;52.742;16.962;2022-08-02T10:27:13;2.98;;;1.05;;
73678;SDS011;61978;52.742;16.962;2022-08-02T10:29:46;1.70;;;0.93;;
73678;SDS011;61978;52.742;16.962;2022-08-02T10:32:15;2.98;;;1.07;;
73678;SDS011;61978;52.742;16.962;2022-08-02T10:34:59;6.60;;;0.70;;
73678;SDS011;61978;52.742;16.962;2022-08-02T10:37:20;7.03;;;1.42;;
73678;SDS011;61978;52.742;16.962;2022-08-02T10:39:53;5.37;;;1.10;;
73678;SDS011;61978;52.742;16.962;2022-08-02T10:45:13;8.10;;;1.67;;
73678;SDS011;61978;52.742;16.962;2022-08-02T10:53:27;9.75;;;1.15;;
73678;SDS011;61978;52.742;16.962;2022-08-02T10:56:00;3.85;;;1.40;;
73678;SDS011;61978;52.742;16.962;2022-08-02T10:58:27;5.40;;;1.42;;
73678;SDS011;61978;52.742;16.962;2022-08-02T11:00:57;5.75;;;1.25;;
73678;SDS011;61978;52.742;16.962;2022-08-02T11:03:33;5.58;;;1.42;;
73678;SDS011;61978;52.742;16.962;2022-08-02T11:06:02;12.13;;;1.30;;
73678;SDS011;61978;52.742;16.962;2022-08-02T11:08:31;3.20;;;0.88;;
73678;SDS011;61978;52.742;16.962;2022-08-02T11:11:14;5.65;;;0.95;;
73678;SDS011;61978;52.742;16.962;2022-08-02T11:19:25;4.05;;;0.98;;
73678;SDS011;61978;52.742;16.962;2022-08-02T11:22:02;5.92;;;0.93;;
73678;SDS011;61978;52.742;16.962;2022-08-02T11:24:29;4.42;;;1.22;;
73678;SDS011;61978;52.742;16.962;2022-08-02T11:27:01;6.35;;;1.00;;
73678;SDS011;61978;52.742;16.962;2022-08-02T11:29:36;2.85;;;1.00;;
73678;SDS011;61978;52.742;16.962;2022-08-02T11:32:13;3.80;;;1.40;;
73678;SDS011;61978;52.742;16.962;2022-08-02T11:34:49;2.45;;;0.78;;
73678;SDS011;61978;52.742;16.962;2022-08-02T11:37:27;5.55;;;1.00;;
73678;SDS011;61978;52.742;16.962;2022-08-02T11:40:00;5.12;;;0.90;;
73678;SDS011;61978;52.742;16.962;2022-08-02T11:42:31;4.85;;;1.12;;
73678;SDS011;61978;52.742;16.962;2022-08-02T11:44:58;5.05;;;0.75;;
73678;SDS011;61978;52.742;16.962;2022-08-02T11:47:26;3.15;;;1.12;;
73678;SDS011;61978;52.742;16.962;2022-08-02T11:50:05;6.08;;;1.05;;
73678;SDS011;61978;52.742;16.962;2022-08-02T11:52:36;3.72;;;1.07;;
73678;SDS011;61978;52.742;16.962;2022-08-02T11:55:03;8.93;;;1.10;;
73678;SDS011;61978;52.742;16.962;2022-08-02T11:57:34;3.10;;;1.10;;
73678;SDS011;61978;52.742;16.962;2022-08-02T12:00:03;3.42;;;0.85;;
73678;SDS011;61978;52.742;16.962;2022-08-02T12:02:34;2.87;;;1.07;;
73678;SDS011;61978;52.742;16.962;2022-08-02T12:05:01;4.45;;;0.95;;
73678;SDS011;61978;52.742;16.962;2022-08-02T12:07:31;7.72;;;1.15;;
73678;SDS011;61978;52.742;16.962;2022-08-02T12:09:59;7.87;;;1.20;;
73678;SDS011;61978;52.742;16.962;2022-08-02T12:12:28;7.10;;;0.90;;
73678;SDS011;61978;52.742;16.962;2022-08-02T12:14:55;4.03;;;0.98;;
73678;SDS011;61978;52.742;16.962;2022-08-02T12:17:25;7.58;;;1.32;;
73678;SDS011;61978;52.742;16.962;2022-08-02T12:20:11;4.30;;;1.02;;
73678;SDS011;61978;52.742;16.962;2022-08-02T12:22:38;1.50;;;0.80;;
73678;SDS011;61978;52.742;16.962;2022-08-02T12:25:19;3.05;;;1.02;;
73678;SDS011;61978;52.742;16.962;2022-08-02T12:27:49;4.25;;;1.07;;
73678;SDS011;61978;52.742;16.962;2022-08-02T12:30:16;4.58;;;1.10;;
73678;SDS011;61978;52.742;16.962;2022-08-02T12:32:45;2.58;;;1.00;;
73678;SDS011;61978;52.742;16.962;2022-08-02T12:35:16;3.60;;;1.07;;
73678;SDS011;61978;52.742;16.962;2022-08-02T12:37:47;7.67;;;0.95;;
73678;SDS011;61978;52.742;16.962;2022-08-02T12:40:33;3.83;;;0.88;;
73678;SDS011;61978;52.742;16.962;2022-08-02T12:42:52;7.80;;;1.27;;
73678;SDS011;61978;52.742;16.962;2022-08-02T12:45:21;2.10;;;0.70;;
73678;SDS011;61978;52.742;16.962;2022-08-02T12:47:50;6.83;;;1.20;;
73678;SDS011;61978;52.742;16.962;2022-08-02T12:50:27;6.30;;;1.72;;
73678;SDS011;61978;52.742;16.962;2022-08-02T12:53:12;2.95;;;1.10;;
73678;SDS011;61978;52.742;16.962;2022-08-02T12:55:54;6.33;;;1.10;;
73678;SDS011;61978;52.742;16.962;2022-08-02T12:58:18;2.35;;;1.07;;
73678;SDS011;61978;52.742;16.962;2022-08-02T13:00:52;4.15;;;0.85;;
73678;SDS011;61978;52.742;16.962;2022-08-02T13:03:20;5.62;;;1.00;;
73678;SDS011;61978;52.742;16.962;2022-08-02T13:05:48;5.70;;;1.12;;
73678;SDS011;61978;52.742;16.962;2022-08-02T13:08:15;5.83;;;1.02;;
73678;SDS011;61978;52.742;16.962;2022-08-02T13:10:43;3.83;;;1.17;;
73678;SDS011;61978;52.742;16.962;2022-08-02T13:13:10;4.65;;;1.12;;
73678;SDS011;61978;52.742;16.962;2022-08-02T13:15:37;5.80;;;0.93;;
73678;SDS011;61978;52.742;16.962;2022-08-02T13:18:04;2.80;;;0.80;;
73678;SDS011;61978;52.742;16.962;2022-08-02T13:20:33;3.70;;;0.90;;
73678;SDS011;61978;52.742;16.962;2022-08-02T13:23:00;6.00;;;0.95;;
73678;SDS011;61978;52.742;16.962;2022-08-02T13:25:27;8.28;;;1.65;;
73678;SDS011;61978;52.742;16.962;2022-08-02T13:27:54;7.80;;;1.20;;
73678;SDS011;61978;52.742;16.962;2022-08-02T13:30:21;14.05;;;1.50;;
73678;SDS011;61978;52.742;16.962;2022-08-02T13:32:48;4.83;;;0.90;;
73678;SDS011;61978;52.742;16.962;2022-08-02T13:35:14;4.53;;;0.85;;
73678;SDS011;61978;52.742;16.962;2022-08-02T13:37:42;3.55;;;0.65;;
73678;SDS011;61978;52.742;16.962;2022-08-02T13:40:09;4.22;;;0.98;;
73678;SDS011;61978;52.742;16.962;2022-08-02T13:42:37;4.00;;;0.88;;
73678;SDS011;61978;52.742;16.962;2022-08-02T13:45:04;102.12;;;6.72;;
73678;SDS011;61978;52.742;16.962;2022-08-02T13:47:32;8.25;;;1.00;;
73678;SDS011;61978;52.742;16.962;2022-08-02T13:50:01;9.95;;;1.10;;
73678;SDS011;61978;52.742;16.962;2022-08-02T13:52:29;5.28;;;0.90;;
73678;SDS011;61978;52.742;16.962;2022-08-02T13:54:55;6.78;;;1.05;;
73678;SDS011;61978;52.742;16.962;2022-08-02T13:57:22;6.42;;;1.00;;
73678;SDS011;61978;52.742;16.962;2022-08-02T13:59:49;5.87;;;1.05;;
73678;SDS011;61978;52.742;16.962;2022-08-02T14:02:19;3.17;;;1.20;;
73678;SDS011;61978;52.742;16.962;2022-08-02T14:04:46;23.22;;;2.05;;
73678;SDS011;61978;52.742;16.962;2022-08-02T14:07:12;7.65;;;1.17;;
73678;SDS011;61978;52.742;16.962;2022-08-02T14:09:41;6.55;;;0.95;;
73678;SDS011;61978;52.742;16.962;2022-08-02T14:12:08;3.75;;;1.20;;
73678;SDS011;61978;52.742;16.962;2022-08-02T14:14:35;3.80;;;1.00;;
73678;SDS011;61978;52.742;16.962;2022-08-02T14:17:01;8.90;;;1.00;;
73678;SDS011;61978;52.742;16.962;2022-08-02T14:19:29;5.15;;;1.02;;
73678;SDS011;61978;52.742;16.962;2022-08-02T14:21:56;4.30;;;1.12;;
73678;SDS011;61978;52.742;16.962;2022-08-02T14:24:23;4.25;;;0.80;;
73678;SDS011;61978;52.742;16.962;2022-08-02T14:26:50;4.05;;;1.65;;
73678;SDS011;61978;52.742;16.962;2022-08-02T14:29:16;6.08;;;1.40;;
73678;SDS011;61978;52.742;16.962;2022-08-02T14:31:43;9.73;;;1.20;;
73678;SDS011;61978;52.742;16.962;2022-08-02T14:34:11;5.83;;;1.17;;
73678;SDS011;61978;52.742;16.962;2022-08-02T14:36:38;15.40;;;1.60;;
73678;SDS011;61978;52.742;16.962;2022-08-02T14:39:05;17.20;;;1.98;;
73678;SDS011;61978;52.742;16.962;2022-08-02T14:41:32;18.05;;;2.10;;
73678;SDS011;61978;52.742;16.962;2022-08-02T14:44:02;9.98;;;1.30;;
73678;SDS011;61978;52.742;16.962;2022-08-02T14:46:35;4.90;;;1.10;;
73678;SDS011;61978;52.742;16.962;2022-08-02T14:49:00;11.65;;;1.52;;
73678;SDS011;61978;52.742;16.962;2022-08-02T14:51:28;5.85;;;0.88;;
73678;SDS011;61978;52.742;16.962;2022-08-02T14:53:57;5.45;;;0.90;;
73678;SDS011;61978;52.742;16.962;2022-08-02T14:56:25;3.92;;;1.35;;
73678;SDS011;61978;52.742;16.962;2022-08-02T14:58:52;5.42;;;0.93;;
73678;SDS011;61978;52.742;16.962;2022-08-02T15:01:19;4.10;;;0.82;;
73678;SDS011;61978;52.742;16.962;2022-08-02T15:03:46;2.52;;;1.15;;
73678;SDS011;61978;52.742;16.962;2022-08-02T15:06:13;4.62;;;0.82;;
73678;SDS011;61978;52.742;16.962;2022-08-02T15:08:40;6.47;;;0.68;;
73678;SDS011;61978;52.742;16.962;2022-08-02T15:11:07;2.92;;;1.00;;
73678;SDS011;61978;52.742;16.962;2022-08-02T15:13:34;3.95;;;0.70;;
73678;SDS011;61978;52.742;16.962;2022-08-02T15:16:00;4.28;;;1.02;;
73678;SDS011;61978;52.742;16.962;2022-08-02T15:18:27;6.28;;;1.25;;
73678;SDS011;61978;52.742;16.962;2022-08-02T15:20:55;2.50;;;0.95;;
73678;SDS011;61978;52.742;16.962;2022-08-02T15:23:22;6.00;;;1.52;;
73678;SDS011;61978;52.742;16.962;2022-08-02T15:25:51;1.37;;;0.98;;
73678;SDS011;61978;52.742;16.962;2022-08-02T15:28:19;5.90;;;1.72;;
73678;SDS011;61978;52.742;16.962;2022-08-02T15:30:45;3.10;;;0.80;;
73678;SDS011;61978;52.742;16.962;2022-08-02T15:33:12;2.47;;;0.70;;
73678;SDS011;61978;52.742;16.962;2022-08-02T15:35:39;7.80;;;1.20;;
73678;SDS011;61978;52.742;16.962;2022-08-02T15:38:06;33.33;;;3.15;;
73678;SDS011;61978;52.742;16.962;2022-08-02T15:40:33;5.65;;;1.00;;
73678;SDS011;61978;52.742;16.962;2022-08-02T15:43:01;114.45;;;7.75;;
73678;SDS011;61978;52.742;16.962;2022-08-02T15:45:29;3.77;;;1.10;;
73678;SDS011;61978;52.742;16.962;2022-08-02T15:47:55;2.45;;;0.70;;
73678;SDS011;61978;52.742;16.962;2022-08-02T15:50:22;2.62;;;0.88;;
73678;SDS011;61978;52.742;16.962;2022-08-02T15:52:49;1.35;;;0.70;;
73678;SDS011;61978;52.742;16.962;2022-08-02T15:55:21;5.35;;;0.70;;
73678;SDS011;61978;52.742;16.962;2022-08-02T15:57:49;3.75;;;0.55;;
73678;SDS011;61978;52.742;16.962;2022-08-02T16:00:15;3.50;;;0.60;;
73678;SDS011;61978;52.742;16.962;2022-08-02T16:02:43;7.30;;;1.07;;
73678;SDS011;61978;52.742;16.962;2022-08-02T16:05:11;3.90;;;1.17;;
73678;SDS011;61978;52.742;16.962;2022-08-02T16:07:40;6.00;;;0.85;;
73678;SDS011;61978;52.742;16.962;2022-08-02T16:10:07;4.15;;;0.85;;
73678;SDS011;61978;52.742;16.962;2022-08-02T16:12:37;6.75;;;1.00;;
73678;SDS011;61978;52.742;16.962;2022-08-02T16:15:04;7.35;;;0.98;;
73678;SDS011;61978;52.742;16.962;2022-08-02T16:17:32;1.55;;;0.90;;
73678;SDS011;61978;52.742;16.962;2022-08-02T16:20:00;2.35;;;0.90;;
73678;SDS011;61978;52.742;16.962;2022-08-02T16:22:29;4.35;;;0.70;;
73678;SDS011;61978;52.742;16.962;2022-08-02T16:24:56;2.87;;;1.42;;
73678;SDS011;61978;52.742;16.962;2022-08-02T16:27:23;6.22;;;1.02;;
73678;SDS011;61978;52.742;16.962;2022-08-02T16:29:50;9.60;;;1.25;;
73678;SDS011;61978;52.742;16.962;2022-08-02T16:32:18;8.20;;;1.20;;
73678;SDS011;61978;52.742;16.962;2022-08-02T16:34:46;2.12;;;1.02;;
73678;SDS011;61978;52.742;16.962;2022-08-02T16:37:13;5.62;;;0.88;;
73678;SDS011;61978;52.742;16.962;2022-08-02T16:39:40;6.53;;;0.93;;
73678;SDS011;61978;52.742;16.962;2022-08-02T16:42:10;3.20;;;0.70;;
73678;SDS011;61978;52.742;16.962;2022-08-02T16:44:40;23.92;;;2.10;;
73678;SDS011;61978;52.742;16.962;2022-08-02T16:47:07;2.17;;;0.98;;
73678;SDS011;61978;52.742;16.962;2022-08-02T16:49:37;4.50;;;1.50;;
73678;SDS011;61978;52.742;16.962;2022-08-02T16:52:05;3.00;;;0.70;;
73678;SDS011;61978;52.742;16.962;2022-08-02T16:54:32;12.80;;;1.07;;
73678;SDS011;61978;52.742;16.962;2022-08-02T16:57:00;3.95;;;0.80;;
73678;SDS011;61978;52.742;16.962;2022-08-02T16:59:31;8.15;;;1.10;;
73678;SDS011;61978;52.742;16.962;2022-08-02T17:02:00;4.72;;;1.12;;
73678;SDS011;61978;52.742;16.962;2022-08-02T17:04:30;3.83;;;1.00;;
73678;SDS011;61978;52.742;16.962;2022-08-02T17:06:59;6.80;;;1.15;;
73678;SDS011;61978;52.742;16.962;2022-08-02T17:09:26;3.72;;;0.85;;
73678;SDS011;61978;52.742;16.962;2022-08-02T17:11:54;8.05;;;1.05;;
73678;SDS011;61978;52.742;16.962;2022-08-02T17:14:21;16.93;;;1.35;;
73678;SDS011;61978;52.742;16.962;2022-08-02T17:16:47;5.45;;;1.40;;
73678;SDS011;61978;52.742;16.962;2022-08-02T17:19:14;48.42;;;2.85;;
73678;SDS011;61978;52.742;16.962;2022-08-02T17:21:43;81.72;;;4.12;;
73678;SDS011;61978;52.742;16.962;2022-08-02T17:24:10;3.65;;;0.98;;
73678;SDS011;61978;52.742;16.962;2022-08-02T17:26:38;148.02;;;5.00;;
73678;SDS011;61978;52.742;16.962;2022-08-02T17:29:05;179.42;;;8.10;;
73678;SDS011;61978;52.742;16.962;2022-08-02T17:31:32;6.25;;;1.12;;
73678;SDS011;61978;52.742;16.962;2022-08-02T17:33:59;4.03;;;0.98;;
73678;SDS011;61978;52.742;16.962;2022-08-02T17:36:26;8.80;;;1.15;;
73678;SDS011;61978;52.742;16.962;2022-08-02T17:38:55;9.50;;;0.98;;
73678;SDS011;61978;52.742;16.962;2022-08-02T17:41:25;17.77;;;2.15;;
73678;SDS011;61978;52.742;16.962;2022-08-02T17:43:51;10.20;;;1.77;;
73678;SDS011;61978;52.742;16.962;2022-08-02T17:46:19;48.73;;;3.00;;
73678;SDS011;61978;52.742;16.962;2022-08-02T17:48:46;8.73;;;1.27;;
73678;SDS011;61978;52.742;16.962;2022-08-02T17:51:31;85.28;;;4.33;;
73678;SDS011;61978;52.742;16.962;2022-08-02T17:54:00;48.75;;;2.55;;
73678;SDS011;61978;52.742;16.962;2022-08-02T17:56:27;7.47;;;1.10;;